Estación Meteorológica Peña el Pijo (Robertgarden) [ 09/24/17 17:39:02 CEST ]

Fecha Hora Presion(HPa) Temp (°C) Humedad % Rocio (°C) Viento ( m/s) Direccion Lluvia 1Hora(mm) Lluvia 24H(mm) LLuvia Total(mm)
2017-Apr-20 01:01:47 1010.400 9.1 80 5.8         1357.67
2017-Apr-20 02:01:47 1010.600 8.4 82 5.5         1357.67
2017-Apr-20 03:01:42 1010.600 7.9 85 5.5         1357.67
2017-Apr-20 04:01:42 1010.600 7.4 86 5.2         1357.67
2017-Apr-20 05:01:43 1010.300 7.3 87 5.3         1357.67
2017-Apr-20 06:01:42 1010.500 6.3 86 4.1         1357.67
2017-Apr-20 07:01:48 1010.600 6.1 85 3.8         1357.67
2017-Apr-20 08:01:46 1011.200 5.9 83 3.2         1357.67
2017-Apr-20 09:01:46 1011.500 6.6 77 2.8         1357.67
2017-Apr-20 10:01:48 1011.800 8.5 67 2.7         1357.67
2017-Apr-20 11:01:36 1012.000 10.4 48 -0.2 0.5 E     1357.67
2017-Apr-20 12:01:46 1012.100 12.1 44 0.1 2.8 ESE     1357.67
2017-Apr-20 13:01:46 1012.200 12.6 45 0.9 1.5 SSE     1357.67
2017-Apr-20 14:01:50 1012.100 12.7 43 0.4         1357.67
2017-Apr-20 15:01:47 1011.900 13.9 41 0.8 2.8 S     1357.67
2017-Apr-20 16:01:47 1012.000 13.2 43 0.8 6.0 ESE     1357.67
2017-Apr-20 17:01:46 1012.100 12.1 49 1.7 0.4 E     1357.67
2017-Apr-20 18:01:46 1012.300 10.9 54 1.9         1357.67
2017-Apr-20 19:01:46 1012.400 10.6 56 2.1 1.2 SW     1357.67
2017-Apr-20 20:01:57 1012.300 8.9 62 2.0         1357.67
2017-Apr-20 21:01:34 1012.200 8.0 66 2.0         1357.67
2017-Apr-20 22:01:40 1013.200 7.8 70 2.7         1357.67
2017-Apr-20 23:01:53 1013.900 7.4 72 2.7         1357.67

Temperatura Máxima:13°    Temperatura Mínima:
Presión Máxima:1013.900 Hpa    Presión Mínima:1010.300 Hpa


Volver